Time,TemperatureF,DewpointF,PressureIn,WindDirection,WindDirectionDegrees,WindSpeedMPH,WindSpeedGustMPH,Humidity,HourlyPrecipIn,Conditions,Clouds,dailyrainin,SoftwareType,DateUTC
2013-08-21 00:05:00,74.6,48.0,25.26,SW,236,2.0,3.0,39,0.00,,,0.00,weatherlink.com 1.10,2013-08-21 06:05:00,
2013-08-21 00:20:00,73.4,48.0,25.27,SSW,204,1.0,2.0,41,0.00,,,0.00,weatherlink.com 1.10,2013-08-21 06:20:00,
2013-08-21 00:35:00,71.7,48.0,25.27,WNW,284,1.0,4.0,43,0.00,,,0.00,weatherlink.com 1.10,2013-08-21 06:35:00,
2013-08-21 00:50:00,70.0,49.0,25.26,SSW,201,0.0,3.0,47,0.00,,,0.00,weatherlink.com 1.10,2013-08-21 06:50:00,
2013-08-21 01:05:00,68.6,49.0,25.26,SSW,210,0.0,2.0,49,0.00,,,0.00,weatherlink.com 1.10,2013-08-21 07:05:00,
2013-08-21 01:20:00,67.3,49.0,25.26,WNW,291,0.0,2.0,52,0.00,,,0.00,weatherlink.com 1.10,2013-08-21 07:20:00,
2013-08-21 01:35:00,67.1,48.0,25.26,South,182,0.0,2.0,51,0.00,,,0.00,weatherlink.com 1.10,2013-08-21 07:35:00,
2013-08-21 01:50:00,66.9,49.0,25.25,SE,129,1.0,3.0,52,0.00,,,0.00,weatherlink.com 1.10,2013-08-21 07:50:00,
2013-08-21 02:05:00,67.1,49.0,25.25,SE,125,0.0,1.0,52,0.00,,,0.00,weatherlink.com 1.10,2013-08-21 08:05:00,
2013-08-21 02:20:00,67.2,49.0,25.25,SSW,198,0.0,1.0,53,0.00,,,0.00,weatherlink.com 1.10,2013-08-21 08:20:00,
2013-08-21 02:35:00,66.7,49.0,25.25,SSW,199,0.0,1.0,54,0.00,,,0.00,weatherlink.com 1.10,2013-08-21 08:35:00,
2013-08-21 02:51:00,66.7,50.0,25.26,WSW,243,2.0,3.0,56,0.00,,,0.00,weatherlink.com 1.10,2013-08-21 08:51:00,
2013-08-21 03:06:00,67.5,51.0,25.27,West,262,7.0,9.0,56,0.00,,,0.00,weatherlink.com 1.10,2013-08-21 09:06:00,
2013-08-21 03:21:00,67.3,52.0,25.26,WSW,254,4.0,6.0,59,0.00,,,0.00,weatherlink.com 1.10,2013-08-21 09:21:00,
2013-08-21 03:36:00,68.0,52.0,25.27,WSW,253,2.0,5.0,58,0.00,,,0.00,weatherlink.com 1.10,2013-08-21 09:36:00,
2013-08-21 03:51:00,68.7,53.0,25.27,West,263,1.0,3.0,57,0.00,,,0.00,weatherlink.com 1.10,2013-08-21 09:51:00,
2013-08-21 04:06:00,70.1,52.0,25.27,WNW,292,3.0,5.0,53,0.00,,,0.00,weatherlink.com 1.10,2013-08-21 10:06:00,
2013-08-21 04:21:00,70.9,52.0,25.27,WNW,283,2.0,5.0,51,0.00,,,0.00,weatherlink.com 1.10,2013-08-21 10:21:00,
2013-08-21 04:36:00,71.7,51.0,25.27,WNW,297,3.0,9.0,49,0.00,,,0.00,weatherlink.com 1.10,2013-08-21 10:36:00,
2013-08-21 04:51:00,71.5,51.0,25.28,WNW,297,3.0,6.0,49,0.00,,,0.00,weatherlink.com 1.10,2013-08-21 10:51:00,
2013-08-21 05:06:00,71.3,50.0,25.28,NW,309,3.0,6.0,48,0.00,,,0.00,weatherlink.com 1.10,2013-08-21 11:06:00,
2013-08-21 05:21:00,71.2,51.0,25.28,WSW,256,4.0,7.0,49,0.00,,,0.00,weatherlink.com 1.10,2013-08-21 11:21:00,
2013-08-21 05:36:00,71.2,50.0,25.27,North,349,3.0,7.0,48,0.00,,,0.00,weatherlink.com 1.10,2013-08-21 11:36:00,
2013-08-21 05:51:00,71.0,50.0,25.28,WSW,240,5.0,6.0,48,0.00,,,0.00,weatherlink.com 1.10,2013-08-21 11:51:00,
2013-08-21 06:06:00,71.7,49.0,25.28,NW,305,4.0,15.0,44,0.00,,,0.00,weatherlink.com 1.10,2013-08-21 12:06:00,
2013-08-21 06:21:00,70.8,49.0,25.29,West,264,3.0,5.0,46,0.00,,,0.00,weatherlink.com 1.10,2013-08-21 12:21:00,
2013-08-21 06:36:00,71.6,49.0,25.29,WNW,291,4.0,11.0,45,0.00,,,0.00,weatherlink.com 1.10,2013-08-21 12:36:00,
2013-08-21 06:51:00,71.6,50.0,25.29,WNW,302,3.0,5.0,46,0.00,,,0.00,weatherlink.com 1.10,2013-08-21 12:51:00,
2013-08-21 07:06:00,72.1,50.0,25.30,WNW,295,1.0,6.0,46,0.00,,,0.00,weatherlink.com 1.10,2013-08-21 13:06:00,
2013-08-21 07:21:00,72.2,50.0,25.30,NNW,340,2.0,7.0,46,0.00,,,0.00,weatherlink.com 1.10,2013-08-21 13:21:00,
2013-08-21 07:36:00,73.6,51.0,25.31,West,280,3.0,6.0,46,0.00,,,0.00,weatherlink.com 1.10,2013-08-21 13:36:00,
2013-08-21 07:51:00,74.9,51.0,25.31,NNW,347,2.0,5.0,43,0.00,,,0.00,weatherlink.com 1.10,2013-08-21 13:51:00,
2013-08-21 08:06:00,75.1,51.0,25.32,West,271,3.0,5.0,43,0.00,,,0.00,weatherlink.com 1.10,2013-08-21 14:06:00,
2013-08-21 08:21:00,75.3,51.0,25.32,NW,326,5.0,6.0,43,0.00,,,0.00,weatherlink.com 1.10,2013-08-21 14:21:00,
2013-08-21 08:36:00,75.4,51.0,25.32,NW,318,5.0,8.0,43,0.00,,,0.00,weatherlink.com 1.10,2013-08-21 14:36:00,
2013-08-21 08:51:00,76.4,51.0,25.32,WNW,283,7.0,11.0,41,0.00,,,0.00,weatherlink.com 1.10,2013-08-21 14:51:00,
2013-08-21 09:06:00,77.5,51.0,25.32,NW,318,6.0,11.0,40,0.00,,,0.00,weatherlink.com 1.10,2013-08-21 15:06:00,
2013-08-21 09:21:00,77.9,51.0,25.33,NW,319,7.0,9.0,39,0.00,,,0.00,weatherlink.com 1.10,2013-08-21 15:21:00,
2013-08-21 09:36:00,79.4,51.0,25.33,NNE,26,5.0,10.0,37,0.00,,,0.00,weatherlink.com 1.10,2013-08-21 15:36:00,
2013-08-21 09:51:00,80.0,50.0,25.32,NNE,26,12.0,14.0,35,0.00,,,0.00,weatherlink.com 1.10,2013-08-21 15:51:00,
2013-08-21 10:06:00,82.3,51.0,25.33,North,5,5.0,11.0,34,0.00,,,0.00,weatherlink.com 1.10,2013-08-21 16:06:00,
2013-08-21 10:21:00,82.0,51.0,25.34,NNW,332,8.0,14.0,34,0.00,,,0.00,weatherlink.com 1.10,2013-08-21 16:21:00,
2013-08-21 10:36:00,81.7,51.0,25.33,NNW,337,12.0,18.0,34,0.00,,,0.00,weatherlink.com 1.10,2013-08-21 16:36:00,
2013-08-21 10:51:00,83.2,51.0,25.33,NNW,335,12.0,15.0,33,0.00,,,0.00,weatherlink.com 1.10,2013-08-21 16:51:00,
2013-08-21 11:06:00,84.4,51.0,25.33,North,1,13.0,17.0,31,0.00,,,0.00,weatherlink.com 1.10,2013-08-21 17:06:00,
2013-08-21 11:21:00,86.0,51.0,25.33,NNE,22,12.0,18.0,30,0.00,,,0.00,weatherlink.com 1.10,2013-08-21 17:21:00,
2013-08-21 11:36:00,87.1,52.0,25.32,NNE,14,11.0,17.0,30,0.00,,,0.00,weatherlink.com 1.10,2013-08-21 17:36:00,
2013-08-21 11:51:00,86.8,51.0,25.32,NE,49,13.0,14.0,29,0.00,,,0.00,weatherlink.com 1.10,2013-08-21 17:51:00,
2013-08-21 12:06:00,88.0,51.0,25.33,NNE,30,10.0,16.0,28,0.00,,,0.00,weatherlink.com 1.10,2013-08-21 18:06:00,
2013-08-21 12:21:00,88.5,51.0,25.32,North,359,12.0,16.0,28,0.00,,,0.00,weatherlink.com 1.10,2013-08-21 18:21:00,
2013-08-21 12:36:00,89.5,48.0,25.33,NNE,30,8.0,17.0,24,0.00,,,0.00,weatherlink.com 1.10,2013-08-21 18:36:00,
2013-08-21 12:51:00,88.1,48.0,25.32,North,11,17.0,19.0,25,0.00,,,0.00,weatherlink.com 1.10,2013-08-21 18:51:00,
2013-08-21 13:07:00,88.6,51.0,25.32,NE,50,15.0,16.0,27,0.00,,,0.00,weatherlink.com 1.10,2013-08-21 19:07:00,
2013-08-21 13:22:00,88.7,50.0,25.32,NE,46,9.0,19.0,26,0.00,,,0.00,weatherlink.com 1.10,2013-08-21 19:22:00,
2013-08-21 13:37:00,89.1,52.0,25.32,NNE,28,12.0,18.0,28,0.00,,,0.00,weatherlink.com 1.10,2013-08-21 19:37:00,
2013-08-21 13:52:00,89.1,54.0,25.32,NE,47,8.0,17.0,30,0.00,,,0.00,weatherlink.com 1.10,2013-08-21 19:52:00,
2013-08-21 14:07:00,89.3,54.0,25.32,NE,36,8.0,15.0,30,0.00,,,0.00,weatherlink.com 1.10,2013-08-21 20:07:00,
2013-08-21 14:22:00,89.3,53.0,25.31,NE,48,10.0,14.0,29,0.00,,,0.00,weatherlink.com 1.10,2013-08-21 20:22:00,
2013-08-21 14:37:00,90.0,52.0,25.31,NE,47,5.0,12.0,27,0.00,,,0.00,weatherlink.com 1.10,2013-08-21 20:37:00,
2013-08-21 14:52:00,88.6,53.0,25.31,NNE,32,10.0,15.0,30,0.00,,,0.00,weatherlink.com 1.10,2013-08-21 20:52:00,
2013-08-21 15:07:00,85.8,54.0,25.31,NE,40,7.0,13.0,34,0.00,,,0.00,weatherlink.com 1.10,2013-08-21 21:07:00,
2013-08-21 15:22:00,85.8,55.0,25.31,NE,44,7.0,9.0,35,0.00,,,0.00,weatherlink.com 1.10,2013-08-21 21:22:00,
2013-08-21 15:37:00,85.1,55.0,25.31,NE,46,3.0,7.0,35,0.00,,,0.00,weatherlink.com 1.10,2013-08-21 21:37:00,
2013-08-21 15:52:00,85.1,55.0,25.31,NNE,32,5.0,8.0,36,0.00,,,0.00,weatherlink.com 1.10,2013-08-21 21:52:00,
2013-08-21 16:07:00,85.8,54.0,25.31,NE,34,7.0,11.0,34,0.00,,,0.00,weatherlink.com 1.10,2013-08-21 22:07:00,
2013-08-21 16:22:00,86.1,55.0,25.31,NE,44,10.0,11.0,34,0.00,,,0.00,weatherlink.com 1.10,2013-08-21 22:22:00,
2013-08-21 16:37:00,84.6,52.0,25.31,NNE,33,9.0,15.0,33,0.00,,,0.00,weatherlink.com 1.10,2013-08-21 22:37:00,
2013-08-21 16:52:00,86.6,54.0,25.31,NNE,32,9.0,15.0,33,0.00,,,0.00,weatherlink.com 1.10,2013-08-21 22:52:00,
2013-08-21 17:07:00,83.9,53.0,25.31,NNE,22,12.0,18.0,35,0.00,,,0.00,weatherlink.com 1.10,2013-08-21 23:07:00,
2013-08-21 17:22:00,82.3,54.0,25.31,NE,56,10.0,16.0,38,0.00,,,0.00,weatherlink.com 1.10,2013-08-21 23:22:00,
2013-08-21 17:37:00,82.2,54.0,25.31,NE,36,12.0,14.0,38,0.00,,,0.00,weatherlink.com 1.10,2013-08-21 23:37:00,
2013-08-21 17:52:00,82.2,54.0,25.31,NNE,25,10.0,17.0,38,0.00,,,0.00,weatherlink.com 1.10,2013-08-21 23:52:00,
2013-08-21 18:07:00,82.5,53.0,25.31,ENE,65,14.0,21.0,36,0.00,,,0.00,weatherlink.com 1.10,2013-08-22 00:07:00,
2013-08-21 18:22:00,80.1,53.0,25.32,NNE,30,13.0,19.0,39,0.00,,,0.00,weatherlink.com 1.10,2013-08-22 00:22:00,
2013-08-21 18:37:00,78.6,54.0,25.32,NE,46,7.0,18.0,42,0.00,,,0.00,weatherlink.com 1.10,2013-08-22 00:37:00,
2013-08-21 18:52:00,77.8,54.0,25.33,NNE,15,12.0,19.0,44,0.00,,,0.00,weatherlink.com 1.10,2013-08-22 00:52:00,
2013-08-21 19:07:00,77.1,55.0,25.33,NNE,30,14.0,21.0,46,0.00,,,0.00,weatherlink.com 1.10,2013-08-22 01:07:00,
2013-08-21 19:22:00,76.4,55.0,25.34,NNE,30,11.0,19.0,48,0.00,,,0.00,weatherlink.com 1.10,2013-08-22 01:22:00,
2013-08-21 19:37:00,75.0,56.0,25.33,NE,43,9.0,12.0,51,0.00,,,0.00,weatherlink.com 1.10,2013-08-22 01:37:00,
2013-08-21 19:52:00,73.8,55.0,25.33,NNE,26,5.0,11.0,53,0.00,,,0.00,weatherlink.com 1.10,2013-08-22 01:52:00,
2013-08-21 20:07:00,72.8,56.0,25.34,NE,41,5.0,7.0,55,0.00,,,0.00,weatherlink.com 1.10,2013-08-22 02:07:00,
2013-08-21 20:22:00,71.7,55.0,25.35,NE,34,3.0,5.0,57,0.00,,,0.00,weatherlink.com 1.10,2013-08-22 02:22:00,
2013-08-21 20:37:00,70.8,56.0,25.35,NE,44,2.0,4.0,60,0.00,,,0.00,weatherlink.com 1.10,2013-08-22 02:37:00,
2013-08-21 20:52:00,70.7,56.0,25.35,ESE,103,1.0,3.0,60,0.00,,,0.00,weatherlink.com 1.10,2013-08-22 02:52:00,
2013-08-21 21:07:00,70.2,56.0,25.36,NE,54,3.0,3.0,61,0.00,,,0.00,weatherlink.com 1.10,2013-08-22 03:07:00,
2013-08-21 21:22:00,68.8,56.0,25.36,NE,39,4.0,5.0,65,0.00,,,0.00,weatherlink.com 1.10,2013-08-22 03:22:00,
2013-08-21 21:37:00,68.2,56.0,25.36,NE,40,3.0,3.0,66,0.00,,,0.00,weatherlink.com 1.10,2013-08-22 03:37:00,
2013-08-21 21:52:00,68.8,56.0,25.38,NNW,340,4.0,7.0,65,0.00,,,0.00,weatherlink.com 1.10,2013-08-22 03:52:00,
2013-08-21 22:07:00,68.4,57.0,25.36,East,93,1.0,4.0,66,0.00,,,0.00,weatherlink.com 1.10,2013-08-22 04:07:00,
2013-08-21 22:22:00,68.1,57.0,25.37,NE,49,8.0,9.0,67,0.00,,,0.00,weatherlink.com 1.10,2013-08-22 04:22:00,
2013-08-21 22:37:00,67.8,57.0,25.37,NE,37,8.0,10.0,68,0.00,,,0.00,weatherlink.com 1.10,2013-08-22 04:37:00,
2013-08-21 22:52:00,67.5,57.0,25.38,NNE,32,5.0,7.0,68,0.00,,,0.00,weatherlink.com 1.10,2013-08-22 04:52:00,
2013-08-21 23:07:00,67.4,57.0,25.38,NNE,30,3.0,6.0,69,0.00,,,0.00,weatherlink.com 1.10,2013-08-22 05:07:00,
2013-08-21 23:22:00,66.7,57.0,25.38,NE,50,2.0,4.0,72,0.00,,,0.00,weatherlink.com 1.10,2013-08-22 05:22:00,
2013-08-21 23:37:00,66.4,58.0,25.37,NE,50,5.0,5.0,73,0.00,,,0.00,weatherlink.com 1.10,2013-08-22 05:37:00,
2013-08-21 23:52:00,65.9,57.0,25.40,NW,323,3.0,6.0,74,0.00,,,0.00,weatherlink.com 1.10,2013-08-22 05:52:00,